createdAt,value
2023-05-04T00:00:03.989Z,13.75
2023-05-04T00:01:03.627Z,13.69
2023-05-04T00:03:04.526Z,13.62
2023-05-04T00:04:04.547Z,13.56
2023-05-04T00:05:03.787Z,13.44
2023-05-04T00:07:04.493Z,13.31
2023-05-04T00:09:04.021Z,13.12
2023-05-04T00:10:04.339Z,13.12
2023-05-04T00:11:04.396Z,13.00
2023-05-04T00:12:03.844Z,13.06
2023-05-04T00:13:04.052Z,12.94
2023-05-04T00:14:03.768Z,12.88
2023-05-04T00:15:04.500Z,12.81
2023-05-04T00:17:04.032Z,12.81
2023-05-04T00:18:04.378Z,13.19
2023-05-04T00:19:03.929Z,13.00
2023-05-04T00:20:04.611Z,13.00
2023-05-04T00:22:03.709Z,12.75
2023-05-04T00:23:04.173Z,12.62
2023-05-04T00:24:03.687Z,12.50
2023-05-04T00:25:04.249Z,12.56
2023-05-04T00:26:04.052Z,12.69
2023-05-04T00:27:03.557Z,12.56
2023-05-04T00:28:04.166Z,12.50
2023-05-04T00:29:03.598Z,12.44
2023-05-04T00:30:04.420Z,12.31
2023-05-04T00:31:04.406Z,12.31
2023-05-04T00:34:04.405Z,12.12
2023-05-04T00:35:04.372Z,12.06
2023-05-04T00:36:03.770Z,12.00
2023-05-04T00:38:04.412Z,11.88
2023-05-04T00:39:03.949Z,11.81
2023-05-04T00:40:04.016Z,11.88
2023-05-04T00:41:03.928Z,11.81
2023-05-04T00:43:04.331Z,11.81
2023-05-04T00:44:03.927Z,11.88
2023-05-04T00:45:04.021Z,11.88
2023-05-04T00:46:03.694Z,11.75
2023-05-04T00:47:03.674Z,11.75
2023-05-04T00:48:03.864Z,11.75
2023-05-04T00:49:04.423Z,11.94
2023-05-04T00:50:04.136Z,12.00
2023-05-04T00:51:04.027Z,12.06
2023-05-04T00:52:03.704Z,12.00
2023-05-04T00:53:04.320Z,11.94
2023-05-04T00:54:04.250Z,12.00
2023-05-04T00:57:04.411Z,11.69
2023-05-04T00:58:04.416Z,11.62
2023-05-04T00:59:03.936Z,11.56
2023-05-04T01:00:03.611Z,11.56
2023-05-04T01:01:03.644Z,11.56
2023-05-04T01:02:03.627Z,11.50
2023-05-04T01:03:04.328Z,11.50
2023-05-04T01:04:03.803Z,11.50
2023-05-04T01:05:04.414Z,11.50
2023-05-04T01:06:04.018Z,11.44
2023-05-04T01:07:04.166Z,11.50
2023-05-04T01:09:04.178Z,11.94
2023-05-04T01:11:04.248Z,12.06
2023-05-04T01:13:04.422Z,11.94
2023-05-04T01:15:04.113Z,11.81
2023-05-04T01:17:04.367Z,11.88
2023-05-04T01:18:04.480Z,12.25
2023-05-04T01:19:04.116Z,12.44
2023-05-04T01:20:03.918Z,12.44
2023-05-04T01:21:04.161Z,12.38
2023-05-04T01:23:04.410Z,12.38
2023-05-04T01:24:04.015Z,12.25
2023-05-04T01:25:03.612Z,12.25
2023-05-04T01:26:03.701Z,12.19
2023-05-04T01:27:03.663Z,12.19
2023-05-04T01:29:04.352Z,12.06
2023-05-04T01:31:04.042Z,12.00
2023-05-04T01:32:03.680Z,11.94
2023-05-04T01:33:03.808Z,11.88
2023-05-04T01:34:04.251Z,11.81
2023-05-04T01:35:03.934Z,11.75
2023-05-04T01:36:03.942Z,11.69
2023-05-04T01:37:04.180Z,11.75
2023-05-04T01:39:04.245Z,11.75
2023-05-04T01:40:04.048Z,11.75
2023-05-04T01:41:04.014Z,11.88
2023-05-04T01:42:03.607Z,12.00
2023-05-04T01:43:04.488Z,11.94
2023-05-04T01:45:04.453Z,11.94
2023-05-04T01:46:03.582Z,11.94
2023-05-04T01:47:04.254Z,11.88
2023-05-04T01:48:03.954Z,11.81
2023-05-04T01:50:04.262Z,11.62
2023-05-04T01:51:04.238Z,11.62
2023-05-04T01:52:03.777Z,11.62
2023-05-04T01:53:04.489Z,11.62
2023-05-04T01:55:04.176Z,11.62
2023-05-04T01:57:04.416Z,11.50
2023-05-04T01:58:03.523Z,11.50
2023-05-04T01:59:04.079Z,11.50
2023-05-04T02:00:04.367Z,11.44
2023-05-04T02:01:04.105Z,11.38
2023-05-04T02:02:04.200Z,11.31
2023-05-04T02:03:04.163Z,11.38
2023-05-04T02:04:04.219Z,11.31
2023-05-04T02:06:03.608Z,11.25
2023-05-04T02:07:04.242Z,11.25
2023-05-04T02:09:04.319Z,11.25
2023-05-04T02:11:04.091Z,11.31
2023-05-04T02:12:03.911Z,11.31
2023-05-04T02:13:04.457Z,11.31
2023-05-04T02:15:04.087Z,11.38
2023-05-04T02:17:03.773Z,11.31
2023-05-04T02:18:03.900Z,11.31
2023-05-04T02:19:03.444Z,11.25
2023-05-04T02:20:04.312Z,11.25
2023-05-04T02:22:04.250Z,11.19
2023-05-04T02:24:04.399Z,11.12
2023-05-04T02:25:03.996Z,11.06
2023-05-04T02:26:04.007Z,11.06
2023-05-04T02:27:03.460Z,11.06
2023-05-04T02:28:04.403Z,11.12
2023-05-04T02:30:04.202Z,11.19
2023-05-04T02:31:03.993Z,11.19
2023-05-04T02:32:04.164Z,11.19
2023-05-04T02:33:04.416Z,11.25
2023-05-04T02:34:04.018Z,11.25
2023-05-04T02:35:03.527Z,11.25
2023-05-04T02:37:05.207Z,11.25
2023-05-04T02:38:04.173Z,11.31
2023-05-04T02:40:03.905Z,11.19
2023-05-04T02:41:04.156Z,11.12
2023-05-04T02:42:04.166Z,11.12
2023-05-04T02:43:03.762Z,11.06
2023-05-04T02:44:04.329Z,11.12
2023-05-04T02:45:03.939Z,11.12
2023-05-04T02:46:04.063Z,11.06
2023-05-04T02:48:03.855Z,11.12
2023-05-04T02:49:03.444Z,11.12
2023-05-04T02:50:04.408Z,11.12
2023-05-04T02:52:04.092Z,11.19
2023-05-04T02:53:04.257Z,11.19
2023-05-04T02:54:04.248Z,11.19
2023-05-04T02:56:04.517Z,11.38
2023-05-04T02:58:04.016Z,11.31
2023-05-04T03:00:04.443Z,11.50
2023-05-04T03:01:03.572Z,11.25
2023-05-04T03:03:04.419Z,10.88
2023-05-04T03:04:04.035Z,10.81
2023-05-04T03:05:03.852Z,10.75
2023-05-04T03:06:03.846Z,10.69
2023-05-04T03:07:03.837Z,10.69
2023-05-04T03:09:03.531Z,10.56
2023-05-04T03:10:03.588Z,10.56
2023-05-04T03:11:04.091Z,10.56
2023-05-04T03:12:03.702Z,10.62
2023-05-04T03:13:04.416Z,10.69
2023-05-04T03:14:04.140Z,10.69
2023-05-04T03:15:04.015Z,10.69
2023-05-04T03:17:03.924Z,10.69
2023-05-04T03:19:04.127Z,10.69
2023-05-04T03:20:04.449Z,10.62
2023-05-04T03:21:04.345Z,10.88
2023-05-04T03:23:03.622Z,11.06
2023-05-04T03:24:03.616Z,10.94
2023-05-04T03:25:03.625Z,10.81
2023-05-04T03:26:03.623Z,10.75
2023-05-04T03:27:04.412Z,10.69
2023-05-04T03:28:04.417Z,10.75
2023-05-04T03:29:04.169Z,10.69
2023-05-04T03:30:03.812Z,11.06
2023-05-04T03:31:03.443Z,11.06
2023-05-04T03:32:04.131Z,11.19
2023-05-04T03:33:03.728Z,11.25
2023-05-04T03:34:03.788Z,11.31
2023-05-04T03:35:04.086Z,11.25
2023-05-04T03:37:04.005Z,11.12
2023-05-04T03:38:04.097Z,11.06
2023-05-04T03:39:03.689Z,11.06
2023-05-04T03:40:04.465Z,11.00
2023-05-04T03:42:03.608Z,10.88
2023-05-04T03:43:04.337Z,10.94
2023-05-04T03:44:04.330Z,11.31
2023-05-04T03:45:04.585Z,11.44
2023-05-04T03:46:04.566Z,11.44
2023-05-04T03:47:03.655Z,11.56
2023-05-04T03:48:04.269Z,11.81
2023-05-04T03:49:04.413Z,12.44
2023-05-04T03:50:04.216Z,12.31
2023-05-04T03:51:04.261Z,12.44
2023-05-04T03:52:04.245Z,12.44
2023-05-04T03:53:04.326Z,12.56
2023-05-04T03:54:03.842Z,12.94
2023-05-04T03:55:03.946Z,12.94
2023-05-04T03:56:03.523Z,13.12
2023-05-04T03:57:03.602Z,13.25
2023-05-04T03:58:03.625Z,13.44
2023-05-04T03:59:04.104Z,13.44
2023-05-04T04:01:04.089Z,13.69
2023-05-04T04:03:03.672Z,13.31
2023-05-04T04:04:04.467Z,13.12
2023-05-04T04:06:03.816Z,13.25
2023-05-04T04:09:03.450Z,13.44
2023-05-04T04:10:04.721Z,13.69
2023-05-04T04:12:03.628Z,14.88
2023-05-04T04:13:04.205Z,15.06
2023-05-04T04:15:03.691Z,15.06
2023-05-04T04:17:04.495Z,15.19
2023-05-04T04:18:04.250Z,14.56
2023-05-04T04:19:03.925Z,14.06
2023-05-04T04:20:03.765Z,13.69
2023-05-04T04:21:03.775Z,14.38
2023-05-04T04:22:04.417Z,14.12
2023-05-04T04:23:03.933Z,13.94
2023-05-04T04:25:04.556Z,13.62
2023-05-04T04:26:03.692Z,13.81
2023-05-04T04:27:04.333Z,13.88
2023-05-04T04:28:04.096Z,14.56
2023-05-04T04:29:04.108Z,14.56
2023-05-04T04:30:03.802Z,14.50
2023-05-04T04:31:04.081Z,14.50
2023-05-04T04:33:03.834Z,15.06
2023-05-04T04:34:04.018Z,15.25
2023-05-04T04:36:03.520Z,15.44
2023-05-04T04:37:04.096Z,15.50
2023-05-04T04:38:04.241Z,15.62
2023-05-04T04:39:03.849Z,15.69
2023-05-04T04:40:04.207Z,15.81
2023-05-04T04:42:04.020Z,15.88
2023-05-04T04:44:03.454Z,16.00
2023-05-04T04:45:04.098Z,16.19
2023-05-04T04:46:03.699Z,16.31
2023-05-04T04:47:04.453Z,16.44
2023-05-04T04:48:03.954Z,16.56
2023-05-04T04:49:04.096Z,16.69
2023-05-04T04:50:04.732Z,16.88
2023-05-04T04:51:04.422Z,17.19
2023-05-04T04:52:04.189Z,17.56
2023-05-04T04:53:04.282Z,17.81
2023-05-04T04:54:04.092Z,17.81
2023-05-04T04:56:04.374Z,18.12
2023-05-04T05:00:04.580Z,19.00
2023-05-04T05:01:03.784Z,19.19
2023-05-04T05:02:04.022Z,19.31
2023-05-04T05:04:04.351Z,19.56
2023-05-04T05:05:04.449Z,19.44
2023-05-04T05:07:04.512Z,19.81
2023-05-04T05:09:03.533Z,21.00
2023-05-04T05:10:04.688Z,21.81
2023-05-04T05:12:04.250Z,22.94
2023-05-04T05:13:04.446Z,23.38
2023-05-04T05:14:03.534Z,23.31
2023-05-04T05:15:03.611Z,23.56
2023-05-04T05:16:04.092Z,24.12
2023-05-04T05:17:04.366Z,24.62
2023-05-04T05:19:04.164Z,25.44
2023-05-04T05:20:04.280Z,25.75
2023-05-04T05:21:03.546Z,25.75
2023-05-04T05:22:03.614Z,25.81
2023-05-04T05:23:04.339Z,26.06
2023-05-04T05:24:04.168Z,25.88
2023-05-04T05:25:04.176Z,26.31
2023-05-04T05:26:04.354Z,26.56
2023-05-04T05:28:03.851Z,27.06
2023-05-04T05:29:04.496Z,27.25
2023-05-04T05:32:04.312Z,27.12
2023-05-04T05:33:03.906Z,27.44
2023-05-04T05:35:04.173Z,27.62
2023-05-04T05:37:03.866Z,27.88
2023-05-04T05:38:04.022Z,27.88
2023-05-04T05:39:03.963Z,27.81
2023-05-04T05:40:04.177Z,27.69
2023-05-04T05:42:03.857Z,27.50
2023-05-04T05:43:04.056Z,27.31
2023-05-04T05:45:04.173Z,26.69
2023-05-04T05:46:04.044Z,26.69
2023-05-04T05:48:04.462Z,26.50
2023-05-04T05:50:04.289Z,26.88
2023-05-04T05:51:04.507Z,27.00
2023-05-04T05:53:03.537Z,27.12
2023-05-04T05:54:03.548Z,27.19
2023-05-04T05:55:04.183Z,27.44
2023-05-04T05:56:03.690Z,27.69
2023-05-04T05:57:03.772Z,27.88
2023-05-04T05:59:04.117Z,27.69
2023-05-04T06:00:04.028Z,27.56
2023-05-04T06:01:03.947Z,27.62
2023-05-04T06:02:04.094Z,27.62
2023-05-04T06:03:03.718Z,27.75
2023-05-04T06:04:04.505Z,27.69
2023-05-04T06:06:04.432Z,27.62
2023-05-04T06:07:04.263Z,27.62
2023-05-04T06:08:04.355Z,27.75
2023-05-04T06:09:04.022Z,27.81
2023-05-04T06:11:03.847Z,27.69
2023-05-04T06:12:04.509Z,27.56
2023-05-04T06:13:04.137Z,27.56
2023-05-04T06:16:03.833Z,27.38
2023-05-04T06:17:03.620Z,27.38
2023-05-04T06:18:04.201Z,27.25
2023-05-04T06:19:04.166Z,27.19
2023-05-04T06:20:04.157Z,27.00
2023-05-04T06:21:04.436Z,26.81
2023-05-04T06:22:04.334Z,26.75
2023-05-04T06:23:04.429Z,26.75
2023-05-04T06:24:04.504Z,26.75
2023-05-04T06:25:07.094Z,26.62
2023-05-04T06:28:04.330Z,26.69
2023-05-04T06:29:03.850Z,26.69
2023-05-04T06:30:03.931Z,26.81
2023-05-04T06:31:04.264Z,26.88
2023-05-04T06:32:04.199Z,27.00
2023-05-04T06:33:04.505Z,27.12
2023-05-04T06:35:04.264Z,27.12
2023-05-04T06:36:04.173Z,27.25
2023-05-04T06:38:03.865Z,27.31
2023-05-04T06:39:03.530Z,27.38
2023-05-04T06:41:04.294Z,27.50
2023-05-04T06:43:04.344Z,27.44
2023-05-04T06:44:03.934Z,27.44
2023-05-04T06:45:03.620Z,27.50
2023-05-04T06:46:04.188Z,27.62
2023-05-04T06:47:04.177Z,27.62
2023-05-04T06:48:04.225Z,27.62
2023-05-04T06:50:04.557Z,27.69
2023-05-04T06:52:04.261Z,27.75
2023-05-04T06:53:03.873Z,27.56
2023-05-04T06:55:04.337Z,27.69
2023-05-04T06:56:04.329Z,27.69
2023-05-04T06:57:04.448Z,27.69
2023-05-04T06:58:04.105Z,27.62
2023-05-04T06:59:04.109Z,27.50
2023-05-04T07:00:03.725Z,27.50
2023-05-04T07:02:03.954Z,27.44
2023-05-04T07:04:04.318Z,27.38
2023-05-04T07:05:03.782Z,27.56
2023-05-04T07:06:04.324Z,27.69
2023-05-04T07:08:04.104Z,28.06
2023-05-04T07:09:03.772Z,28.00
2023-05-04T07:10:03.957Z,28.06
2023-05-04T07:11:03.866Z,28.12
2023-05-04T07:12:03.658Z,28.31
2023-05-04T07:13:04.145Z,28.56
2023-05-04T07:14:03.770Z,28.56
2023-05-04T07:15:04.331Z,28.50
2023-05-04T07:16:04.181Z,28.38
2023-05-04T07:17:04.260Z,28.44
2023-05-04T07:18:03.850Z,28.38
2023-05-04T07:19:03.554Z,28.56
2023-05-04T07:20:04.297Z,28.44
2023-05-04T07:24:03.566Z,28.38
2023-05-04T07:25:03.623Z,28.38
2023-05-04T07:26:03.568Z,28.81
2023-05-04T07:27:03.617Z,29.00
2023-05-04T07:28:03.621Z,29.06
2023-05-04T07:29:04.322Z,29.12
2023-05-04T07:31:03.925Z,29.06
2023-05-04T07:32:03.863Z,28.94
2023-05-04T07:34:03.691Z,28.81
2023-05-04T07:35:03.855Z,28.88
2023-05-04T07:36:03.776Z,29.06
2023-05-04T07:37:04.411Z,29.00
2023-05-04T07:38:04.189Z,29.00
2023-05-04T07:40:04.061Z,29.00
2023-05-04T07:41:03.936Z,29.12
2023-05-04T07:42:03.533Z,29.56
2023-05-04T07:43:03.541Z,29.94
2023-05-04T07:44:04.191Z,30.12
2023-05-04T07:45:03.689Z,30.44
2023-05-04T07:46:04.305Z,30.25
2023-05-04T07:47:04.105Z,30.25
2023-05-04T07:48:04.294Z,30.06
2023-05-04T07:49:04.402Z,30.00
2023-05-04T07:50:04.675Z,29.88
2023-05-04T07:51:03.769Z,29.81
2023-05-04T07:52:03.709Z,29.88
2023-05-04T07:54:04.411Z,29.88
2023-05-04T07:55:04.505Z,29.75
2023-05-04T07:57:03.708Z,29.69
2023-05-04T07:58:03.773Z,29.69
2023-05-04T08:00:03.737Z,29.69
2023-05-04T08:01:03.912Z,29.62
2023-05-04T08:03:04.278Z,29.69
2023-05-04T08:05:04.179Z,29.69
2023-05-04T08:07:03.608Z,29.50
2023-05-04T08:08:03.686Z,29.31
2023-05-04T08:09:03.866Z,29.31
2023-05-04T08:11:16.257Z,29.88
2023-05-04T08:12:03.769Z,29.88
2023-05-04T08:13:03.878Z,29.88
2023-05-04T08:14:04.098Z,30.12
2023-05-04T08:15:03.902Z,29.94
2023-05-04T08:16:03.766Z,29.94
2023-05-04T08:17:03.768Z,29.69
2023-05-04T08:18:04.427Z,30.44
2023-05-04T08:19:04.115Z,30.31
2023-05-04T08:20:04.232Z,30.19
2023-05-04T08:22:03.864Z,30.06
2023-05-04T08:23:04.434Z,30.19
2023-05-04T08:24:04.103Z,30.12
2023-05-04T08:25:03.946Z,30.19
2023-05-04T08:26:04.033Z,30.19
2023-05-04T08:27:07.577Z,30.06
2023-05-04T08:28:03.762Z,30.06
2023-05-04T08:29:03.862Z,30.00
2023-05-04T08:30:03.542Z,29.94
2023-05-04T08:31:03.637Z,29.69
2023-05-04T08:32:03.705Z,29.44
2023-05-04T08:33:04.379Z,29.69
2023-05-04T08:34:04.356Z,29.69
2023-05-04T08:36:04.257Z,29.81
2023-05-04T08:37:04.251Z,29.69
2023-05-04T08:38:04.434Z,29.38
2023-05-04T08:39:04.092Z,29.12
2023-05-04T08:40:03.803Z,29.50
2023-05-04T08:42:04.342Z,29.25
2023-05-04T08:43:04.097Z,29.12
2023-05-04T08:45:03.757Z,29.44
2023-05-04T08:46:03.812Z,29.62
2023-05-04T08:47:04.588Z,29.62
2023-05-04T08:48:04.133Z,29.62
2023-05-04T08:50:03.708Z,29.56
2023-05-04T08:51:03.785Z,29.25
2023-05-04T08:53:04.266Z,28.31
2023-05-04T08:55:03.898Z,28.06
2023-05-04T08:56:04.173Z,27.94
2023-05-04T08:58:03.610Z,27.31
2023-05-04T08:59:03.712Z,26.75
2023-05-04T09:00:04.423Z,26.50
2023-05-04T09:02:03.860Z,26.56
2023-05-04T09:03:04.085Z,26.31
2023-05-04T09:04:03.813Z,26.06
2023-05-04T09:05:04.106Z,26.19
2023-05-04T09:06:04.108Z,26.25
2023-05-04T09:07:03.788Z,26.69
2023-05-04T09:09:04.343Z,26.94
2023-05-04T09:11:04.099Z,26.94
2023-05-04T09:12:03.674Z,27.12
2023-05-04T09:13:04.395Z,26.81
2023-05-04T09:14:03.860Z,26.62
2023-05-04T09:15:04.187Z,26.38
2023-05-04T09:16:03.889Z,26.19
2023-05-04T09:17:03.945Z,26.00
2023-05-04T09:18:03.755Z,26.06
2023-05-04T09:19:04.425Z,26.44
2023-05-04T09:20:04.130Z,26.50
2023-05-04T09:22:04.430Z,26.50
2023-05-04T09:23:04.174Z,26.50
2023-05-04T09:24:03.777Z,26.19
2023-05-04T09:25:04.508Z,25.81
2023-05-04T09:26:04.189Z,26.44
2023-05-04T09:27:03.856Z,26.12
2023-05-04T09:28:03.857Z,26.38
2023-05-04T09:29:04.355Z,26.62
2023-05-04T09:30:03.932Z,26.44
2023-05-04T09:32:04.260Z,25.81
2023-05-04T09:34:03.542Z,26.56
2023-05-04T09:35:04.280Z,26.75
2023-05-04T09:37:04.024Z,26.62
2023-05-04T09:38:03.605Z,26.88
2023-05-04T09:39:04.251Z,27.38
2023-05-04T09:40:04.190Z,26.88
2023-05-04T09:41:03.615Z,26.94
2023-05-04T09:42:04.361Z,26.81
2023-05-04T09:43:03.796Z,26.12
2023-05-04T09:44:03.705Z,25.94
2023-05-04T09:45:04.376Z,25.94
2023-05-04T09:46:04.157Z,25.69
2023-05-04T09:47:03.848Z,25.69
2023-05-04T09:48:04.365Z,25.56
2023-05-04T09:50:04.067Z,25.56
2023-05-04T09:51:03.956Z,25.62
2023-05-04T09:53:04.172Z,25.69
2023-05-04T09:54:03.855Z,25.81
2023-05-04T09:55:04.592Z,25.94
2023-05-04T09:57:03.662Z,25.31
2023-05-04T09:58:04.258Z,25.19
2023-05-04T09:59:04.085Z,24.81
2023-05-04T10:00:04.438Z,24.75
2023-05-04T10:02:14.360Z,24.88
2023-05-04T10:03:04.123Z,25.06
2023-05-04T10:04:04.027Z,24.94
2023-05-04T10:05:04.328Z,24.56
2023-05-04T10:06:04.009Z,24.62
2023-05-04T10:07:03.866Z,24.44
2023-05-04T10:08:04.436Z,24.62
2023-05-04T10:09:04.184Z,24.44
2023-05-04T10:11:04.504Z,24.56
2023-05-04T10:12:04.010Z,24.50
2023-05-04T10:14:03.887Z,24.69
2023-05-04T10:15:04.541Z,25.00
2023-05-04T10:16:04.568Z,24.94
2023-05-04T10:17:03.605Z,24.88
2023-05-04T10:19:04.345Z,25.00
2023-05-04T10:21:04.186Z,24.94
2023-05-04T10:22:03.791Z,25.06
2023-05-04T10:24:04.493Z,25.12
2023-05-04T10:25:04.215Z,25.25
2023-05-04T10:27:04.244Z,25.44
2023-05-04T10:28:04.251Z,25.25
2023-05-04T10:29:03.873Z,24.88
2023-05-04T10:30:04.432Z,25.06
2023-05-04T10:32:03.709Z,24.75
2023-05-04T10:33:04.510Z,24.94
2023-05-04T10:35:04.508Z,25.19
2023-05-04T10:37:04.252Z,24.94
2023-05-04T10:38:03.940Z,24.88
2023-05-04T10:40:05.494Z,24.75
2023-05-04T10:42:04.142Z,24.88
2023-05-04T10:43:03.614Z,25.25
2023-05-04T10:44:04.187Z,25.62
2023-05-04T10:46:03.817Z,26.44
2023-05-04T10:47:04.411Z,26.81
2023-05-04T10:49:04.509Z,26.75
2023-05-04T10:51:04.341Z,26.25
2023-05-04T10:52:04.169Z,26.50
2023-05-04T10:54:04.230Z,27.00
2023-05-04T10:55:04.073Z,26.62
2023-05-04T10:56:03.928Z,26.50
2023-05-04T10:57:04.160Z,26.31
2023-05-04T10:58:04.015Z,26.38
2023-05-04T10:59:03.758Z,26.94
2023-05-04T11:01:04.424Z,27.12
2023-05-04T11:02:04.444Z,27.06
2023-05-04T11:03:03.832Z,26.56
2023-05-04T11:04:04.020Z,26.38
2023-05-04T11:07:04.174Z,26.25
2023-05-04T11:08:04.332Z,26.31
2023-05-04T11:09:04.009Z,26.50
2023-05-04T11:10:03.701Z,26.50
2023-05-04T11:11:03.770Z,26.38
2023-05-04T11:12:04.418Z,26.00
2023-05-04T11:13:05.871Z,25.88
2023-05-04T11:15:04.638Z,25.75
2023-05-04T11:16:03.806Z,25.69
2023-05-04T11:17:03.956Z,25.94
2023-05-04T11:18:03.703Z,26.44
2023-05-04T11:20:04.086Z,26.50
2023-05-04T11:21:03.688Z,26.19
2023-05-04T11:22:03.692Z,26.31
2023-05-04T11:23:03.522Z,26.44
2023-05-04T11:24:03.602Z,26.50
2023-05-04T11:25:04.078Z,26.19
2023-05-04T11:26:03.599Z,25.81
2023-05-04T11:27:03.863Z,25.75
2023-05-04T11:28:04.267Z,25.81
2023-05-04T11:29:04.080Z,26.19
2023-05-04T11:31:03.889Z,26.38
2023-05-04T11:32:03.861Z,26.19
2023-05-04T11:34:03.576Z,25.75
2023-05-04T11:35:04.545Z,25.56
2023-05-04T11:36:04.329Z,25.50
2023-05-04T11:37:04.339Z,25.44
2023-05-04T11:39:04.363Z,25.56
2023-05-04T11:40:03.854Z,25.38
2023-05-04T11:41:04.415Z,25.31
2023-05-04T11:42:04.165Z,25.31
2023-05-04T11:43:04.267Z,25.38
2023-05-04T11:44:03.946Z,25.44
2023-05-04T11:45:04.627Z,25.31
2023-05-04T11:46:03.815Z,25.50
2023-05-04T11:47:04.177Z,25.44
2023-05-04T11:48:04.548Z,25.56
2023-05-04T11:51:04.279Z,25.38
2023-05-04T11:52:04.009Z,25.19
2023-05-04T11:54:03.617Z,25.06
2023-05-04T11:55:04.692Z,25.19
2023-05-04T11:57:03.788Z,25.81
2023-05-04T11:58:04.484Z,25.56
2023-05-04T11:59:04.266Z,25.56
2023-05-04T12:01:04.582Z,25.31
2023-05-04T12:02:04.485Z,25.06
2023-05-04T12:03:04.258Z,25.25
2023-05-04T12:05:04.444Z,25.12
2023-05-04T12:06:04.257Z,25.19
2023-05-04T12:07:03.876Z,25.31
2023-05-04T12:09:04.191Z,25.31
2023-05-04T12:10:03.772Z,25.12
2023-05-04T12:11:03.927Z,25.00
2023-05-04T12:12:04.024Z,24.94
2023-05-04T12:13:04.081Z,25.19
2023-05-04T12:14:04.294Z,25.31
2023-05-04T12:15:04.505Z,25.19
2023-05-04T12:16:04.186Z,25.12
2023-05-04T12:17:04.176Z,25.25
2023-05-04T12:18:03.771Z,25.31
2023-05-04T12:19:03.611Z,25.62
2023-05-04T12:20:03.846Z,25.50
2023-05-04T12:21:05.131Z,25.69
2023-05-04T12:22:04.088Z,26.00
2023-05-04T12:23:03.786Z,25.88
2023-05-04T12:24:04.493Z,25.94
2023-05-04T12:25:03.975Z,26.06
2023-05-04T12:27:04.325Z,25.88
2023-05-04T12:28:04.441Z,25.81
2023-05-04T12:29:04.241Z,25.69
2023-05-04T12:30:03.765Z,25.25
2023-05-04T12:31:03.457Z,25.12
2023-05-04T12:32:04.190Z,25.38
2023-05-04T12:33:04.008Z,25.38
2023-05-04T12:35:03.665Z,25.75
2023-05-04T12:36:04.252Z,26.06
2023-05-04T12:38:03.522Z,26.19
2023-05-04T12:39:03.785Z,26.25
2023-05-04T12:40:04.451Z,26.38
2023-05-04T12:42:04.191Z,26.31
2023-05-04T12:43:03.617Z,26.25
2023-05-04T12:44:04.096Z,26.12
2023-05-04T12:45:04.152Z,26.12
2023-05-04T12:47:04.251Z,26.50
2023-05-04T12:48:04.219Z,26.94
2023-05-04T12:49:04.108Z,27.06
2023-05-04T12:51:03.701Z,26.75
2023-05-04T12:52:03.613Z,27.00
2023-05-04T12:54:04.258Z,26.94
2023-05-04T12:55:04.181Z,26.56
2023-05-04T12:57:03.682Z,26.25
2023-05-04T12:58:04.258Z,26.62
2023-05-04T12:59:04.036Z,26.56
2023-05-04T13:00:03.688Z,26.62
2023-05-04T13:01:03.592Z,26.69
2023-05-04T13:02:03.608Z,26.88
2023-05-04T13:03:03.821Z,26.75
2023-05-04T13:04:04.411Z,26.88
2023-05-04T13:05:04.636Z,26.81
2023-05-04T13:06:04.259Z,26.75
2023-05-04T13:07:04.412Z,26.25
2023-05-04T13:08:04.008Z,26.12
2023-05-04T13:10:04.254Z,26.31
2023-05-04T13:11:04.421Z,26.44
2023-05-04T13:13:04.206Z,26.31
2023-05-04T13:15:04.330Z,26.25
2023-05-04T13:16:04.180Z,26.62
2023-05-04T13:18:04.318Z,26.44
2023-05-04T13:19:04.040Z,26.50
2023-05-04T13:20:04.670Z,26.81
2023-05-04T13:21:03.697Z,27.06
2023-05-04T13:22:04.321Z,26.94
2023-05-04T13:23:04.611Z,27.19
2023-05-04T13:24:04.565Z,27.06
2023-05-04T13:25:03.716Z,27.31
2023-05-04T13:26:04.245Z,27.31
2023-05-04T13:28:04.424Z,28.12
2023-05-04T13:29:04.189Z,27.69
2023-05-04T13:30:04.235Z,28.19
2023-05-04T13:31:03.949Z,27.62
2023-05-04T13:33:10.461Z,27.25
2023-05-04T13:35:03.967Z,26.75
2023-05-04T13:37:04.423Z,26.44
2023-05-04T13:40:04.266Z,26.38
2023-05-04T13:41:03.963Z,26.00
2023-05-04T13:43:04.507Z,26.62
2023-05-04T13:44:04.112Z,26.81
2023-05-04T13:45:04.034Z,26.81
2023-05-04T13:46:03.804Z,27.06
2023-05-04T13:47:04.432Z,27.25
2023-05-04T13:48:04.328Z,27.06
2023-05-04T13:49:03.950Z,26.94
2023-05-04T13:50:04.105Z,26.75
2023-05-04T13:52:03.540Z,27.00
2023-05-04T13:54:04.351Z,27.06
2023-05-04T13:55:04.492Z,26.56
2023-05-04T13:56:03.775Z,26.44
2023-05-04T13:57:04.339Z,26.44
2023-05-04T13:58:04.339Z,26.25
2023-05-04T13:59:03.533Z,26.06
2023-05-04T14:00:07.410Z,26.12
2023-05-04T14:01:04.038Z,25.94
2023-05-04T14:02:03.888Z,25.75
2023-05-04T14:03:03.776Z,25.69
2023-05-04T14:04:03.620Z,25.50
2023-05-04T14:05:04.424Z,25.44
2023-05-04T14:06:04.272Z,25.75
2023-05-04T14:08:03.960Z,25.81
2023-05-04T14:10:03.614Z,25.94
2023-05-04T14:11:04.343Z,25.88
2023-05-04T14:13:03.980Z,26.31
2023-05-04T14:14:03.692Z,26.44
2023-05-04T14:15:03.738Z,26.56
2023-05-04T14:16:04.521Z,26.19
2023-05-04T14:17:04.577Z,26.19
2023-05-04T14:20:04.192Z,25.88
2023-05-04T14:21:04.409Z,25.75
2023-05-04T14:22:04.093Z,25.62
2023-05-04T14:23:03.714Z,26.12
2023-05-04T14:25:04.648Z,26.62
2023-05-04T14:27:04.178Z,27.12
2023-05-04T14:28:03.935Z,26.69
2023-05-04T14:29:04.415Z,26.50
2023-05-04T14:30:04.173Z,26.69
2023-05-04T14:31:03.790Z,26.50
2023-05-04T14:32:04.577Z,26.62
2023-05-04T14:33:04.285Z,26.62
2023-05-04T14:34:03.619Z,26.62
2023-05-04T14:35:03.844Z,26.56
2023-05-04T14:36:04.425Z,26.38
2023-05-04T14:37:03.929Z,26.19
2023-05-04T14:38:03.929Z,26.06
2023-05-04T14:39:03.618Z,25.94
2023-05-04T14:40:03.649Z,26.00
2023-05-04T14:42:04.164Z,25.88
2023-05-04T14:43:03.691Z,25.81
2023-05-04T14:44:03.453Z,25.62
2023-05-04T14:45:04.224Z,25.50
2023-05-04T14:46:03.690Z,25.44
2023-05-04T14:47:06.147Z,25.94
2023-05-04T14:50:04.349Z,26.12
2023-05-04T14:51:04.169Z,26.12
2023-05-04T14:53:04.023Z,26.00
2023-05-04T14:55:04.256Z,25.81
2023-05-04T14:56:04.345Z,25.69
2023-05-04T14:57:04.264Z,25.69
2023-05-04T14:59:03.802Z,26.19
2023-05-04T15:00:04.518Z,26.19
2023-05-04T15:02:04.349Z,26.19
2023-05-04T15:03:04.163Z,25.88
2023-05-04T15:04:04.255Z,25.62
2023-05-04T15:05:03.947Z,25.38
2023-05-04T15:06:03.695Z,25.19
2023-05-04T15:07:04.252Z,25.19
2023-05-04T15:09:03.538Z,25.50
2023-05-04T15:10:04.295Z,25.50
2023-05-04T15:11:04.098Z,25.56
2023-05-04T15:12:04.164Z,26.06
2023-05-04T15:13:04.387Z,26.62
2023-05-04T15:14:04.172Z,26.88
2023-05-04T15:15:04.012Z,26.81
2023-05-04T15:16:04.071Z,27.06
2023-05-04T15:17:03.624Z,26.94
2023-05-04T15:19:04.357Z,26.50
2023-05-04T15:20:04.050Z,26.44
2023-05-04T15:21:03.617Z,25.94
2023-05-04T15:22:03.599Z,25.75
2023-05-04T15:23:04.164Z,25.69
2023-05-04T15:24:04.180Z,25.75
2023-05-04T15:25:04.257Z,25.69
2023-05-04T15:26:03.933Z,25.69
2023-05-04T15:27:03.951Z,25.69
2023-05-04T15:28:04.432Z,25.62
2023-05-04T15:29:04.249Z,25.75
2023-05-04T15:31:03.970Z,25.62
2023-05-04T15:32:03.722Z,25.62
2023-05-04T15:34:03.449Z,25.88
2023-05-04T15:35:06.060Z,25.94
2023-05-04T15:37:04.357Z,26.25
2023-05-04T15:38:03.934Z,25.81
2023-05-04T15:40:03.845Z,25.19
2023-05-04T15:41:03.762Z,25.12
2023-05-04T15:42:03.952Z,24.94
2023-05-04T15:43:04.514Z,24.88
2023-05-04T15:44:04.101Z,24.62
2023-05-04T15:45:04.014Z,24.44
2023-05-04T15:47:04.087Z,24.38
2023-05-04T15:48:03.881Z,24.38
2023-05-04T15:49:03.614Z,24.69
2023-05-04T15:50:04.362Z,24.81
2023-05-04T15:52:04.251Z,25.00
2023-05-04T15:53:04.099Z,25.31
2023-05-04T15:55:12.855Z,25.62
2023-05-04T15:56:06.079Z,25.50
2023-05-04T15:57:04.250Z,25.50
2023-05-04T15:58:03.927Z,25.25
2023-05-04T15:59:04.497Z,25.00
2023-05-04T16:00:05.192Z,24.81
2023-05-04T16:01:04.265Z,25.38
2023-05-04T16:02:04.011Z,25.25
2023-05-04T16:03:04.064Z,25.50
2023-05-04T16:04:04.372Z,25.69
2023-05-04T16:05:03.929Z,25.69
2023-05-04T16:06:04.325Z,25.88
2023-05-04T16:07:04.022Z,25.62
2023-05-04T16:09:03.775Z,25.62
2023-05-04T16:11:04.217Z,25.38
2023-05-04T16:12:04.491Z,25.38
2023-05-04T16:14:04.183Z,25.00
2023-05-04T16:15:03.939Z,24.62
2023-05-04T16:16:04.346Z,24.44